Time;durP1;ratioP1;P1;durP2;ratioP2;P2;SDS_P1;SDS_P2;PMS_P1;PMS_P2;Temp;Humidity;BMP_temperature;BMP_pressure;BME280_temperature;BME280_humidity;BME280_pressure;Samples;Min_cycle;Max_cycle;Signal;HPM_P1;HPM_P2
2022/09/26 07:41:35;;;;;;;0.00;0.00;;;20.10;99.90;;;;;;6107890;22;1262424;-72
2022/09/26 07:44:01;;;;;;;0.00;0.00;;;20.30;99.90;;;;;;6164104;23;20012;-71
2022/09/26 07:51:59;;;;;;;0.15;0.15;;;20.70;99.90;;;;;;6169094;23;20485;-71
2022/09/26 07:54:25;;;;;;;0.00;0.00;;;21.10;99.90;;;;;;6166767;23;20088;-71
2022/09/26 07:56:52;;;;;;;0.10;0.00;;;21.50;99.90;;;;;;6168424;23;20763;-71
2022/09/26 07:59:17;;;;;;;0.10;0.10;;;22.50;99.90;;;;;;6167548;23;20745;-71
2022/09/26 08:01:44;;;;;;;0.50;0.20;;;23.30;99.20;;;;;;6167339;23;20004;-71
2022/09/26 08:04:11;;;;;;;0.00;0.00;;;23.90;98.30;;;;;;6168800;23;20011;-71
2022/09/26 08:06:36;;;;;;;0.10;0.03;;;24.40;97.10;;;;;;6163103;23;20027;-71
2022/09/26 08:09:03;;;;;;;0.10;0.10;;;24.90;95.80;;;;;;6173984;23;20434;-71
2022/09/26 08:11:29;;;;;;;0.00;0.00;;;25.50;94.10;;;;;;6166916;23;20005;-71
2022/09/26 08:13:55;;;;;;;0.00;0.00;;;25.80;92.90;;;;;;6166050;23;20009;-72
2022/09/26 08:16:24;;;;;;;0.00;0.00;;;25.20;92.50;;;;;;6168064;23;20528;-71
2022/09/26 08:18:51;;;;;;;0.00;0.00;;;24.80;92.80;;;;;;6167957;23;20007;-71
2022/09/26 08:21:17;;;;;;;0.08;0.08;;;24.50;93.20;;;;;;6166828;23;20048;-71
2022/09/26 08:23:45;;;;;;;0.00;0.00;;;23.60;93.80;;;;;;6164412;23;20004;-71
2022/09/26 08:26:11;;;;;;;0.00;0.00;;;23.00;94.70;;;;;;6172082;23;20054;-71
2022/09/26 08:28:37;;;;;;;0.00;0.00;;;22.70;95.70;;;;;;6167600;23;20001;-71
2022/09/26 08:31:04;;;;;;;0.00;0.00;;;22.50;96.20;;;;;;6165105;23;20009;-71
2022/09/26 08:33:35;;;;;;;0.00;0.00;;;22.40;96.80;;;;;;6171531;23;20058;-71
2022/09/26 08:36:10;;;;;;;0.13;0.13;;;22.50;96.80;;;;;;6166780;23;20585;-71
2022/09/26 08:38:36;;;;;;;0.10;0.05;;;22.70;96.40;;;;;;6165835;23;20013;-71
2022/09/26 08:41:31;;;;;;;0.20;0.20;;;23.10;96.00;;;;;;6152169;23;20013;-71
2022/09/26 08:44:20;;;;;;;0.25;0.22;;;23.10;95.10;;;;;;6137524;23;20339;-71
2022/09/26 08:47:03;;;;;;;0.00;0.00;;;23.40;94.70;;;;;;6136581;23;20045;-71
2022/09/26 08:49:59;;;;;;;0.03;0.03;;;24.00;93.70;;;;;;6136332;23;20036;-71
2022/09/26 08:52:27;;;;;;;0.00;0.00;;;23.60;93.10;;;;;;6143925;23;20005;-71
2022/09/26 08:54:56;;;;;;;0.00;0.00;;;23.00;94.00;;;;;;6137408;23;20025;-71
2022/09/26 08:57:39;;;;;;;0.10;0.10;;;22.40;94.90;;;;;;6134684;23;20158;-71
2022/09/26 09:00:20;;;;;;;0.00;0.00;;;21.90;95.70;;;;;;6136954;23;20013;-71
2022/09/26 09:03:11;;;;;;;0.10;0.00;;;21.30;96.50;;;;;;6136950;23;20020;-71
2022/09/26 09:06:00;;;;;;;0.25;0.25;;;20.90;97.20;;;;;;6135702;23;20009;-70
2022/09/26 09:08:33;;;;;;;0.00;0.00;;;20.50;98.10;;;;;;6132047;23;20001;-71
2022/09/26 09:11:11;;;;;;;0.00;0.00;;;20.60;98.20;;;;;;6140323;23;20005;-71
2022/09/26 09:13:52;;;;;;;0.00;0.00;;;20.50;98.50;;;;;;6137414;23;20017;-71
2022/09/26 09:16:43;;;;;;;0.00;0.00;;;20.40;98.50;;;;;;6140136;23;20032;-70
2022/09/26 09:19:45;;;;;;;0.00;0.00;;;20.40;98.50;;;;;;6137566;23;20016;-71
2022/09/26 09:22:26;;;;;;;0.00;0.00;;;20.30;98.80;;;;;;6130101;23;20013;-71
2022/09/26 09:24:57;;;;;;;0.00;0.00;;;20.40;98.60;;;;;;6137657;23;20041;-71
2022/09/26 09:28:15;;;;;;;0.20;0.00;;;20.40;98.40;;;;;;6137537;23;20763;-71
2022/09/26 09:30:58;;;;;;;0.00;0.00;;;21.00;98.10;;;;;;6130408;23;20064;-71
2022/09/26 09:33:37;;;;;;;0.00;0.00;;;21.50;96.80;;;;;;6137333;23;20005;-71
2022/09/26 09:36:44;;;;;;;0.00;0.00;;;21.60;96.10;;;;;;6136893;23;20006;-71
2022/09/26 09:39:20;;;;;;;0.00;0.00;;;22.50;95.70;;;;;;6048679;23;20011;-71
2022/09/26 09:41:51;;;;;;;0.00;0.00;;;24.80;92.90;;;;;;6124672;23;20013;-71
2022/09/26 09:44:43;;;;;;;0.00;0.00;;;25.10;90.90;;;;;;6143253;23;20001;-71
2022/09/26 09:47:15;;;;;;;0.00;0.00;;;24.60;90.60;;;;;;6142267;23;20006;-71
2022/09/26 09:49:47;;;;;;;0.00;0.00;;;24.00;90.40;;;;;;6137125;23;20010;-71
2022/09/26 09:52:37;;;;;;;0.00;0.00;;;24.20;90.50;;;;;;6141441;23;20081;-71
2022/09/26 09:55:26;;;;;;;0.00;0.00;;;25.10;88.60;;;;;;6145155;23;20473;-72
2022/09/26 09:58:07;;;;;;;0.00;0.00;;;28.00;82.40;;;;;;6138729;23;20006;-72
2022/09/26 10:00:41;;;;;;;0.00;0.00;;;31.00;74.20;;;;;;6138632;23;20044;-72
2022/09/26 10:03:47;;;;;;;0.00;0.00;;;33.00;66.20;;;;;;6139140;23;20013;-72
2022/09/26 10:06:14;;;;;;;0.00;0.00;;;34.20;61.40;;;;;;6139560;23;20379;-72
2022/09/26 10:08:41;;;;;;;0.00;0.00;;;34.90;58.10;;;;;;6137575;23;20097;-73
2022/09/26 10:11:25;;;;;;;0.00;0.00;;;34.40;56.90;;;;;;6138814;23;20445;-72
2022/09/26 10:13:54;;;;;;;0.00;0.00;;;33.10;57.30;;;;;;6134052;23;20001;-72
2022/09/26 10:16:20;;;;;;;0.55;0.13;;;32.50;58.80;;;;;;6139696;23;20667;-72
2022/09/26 10:19:02;;;;;;;0.00;0.00;;;32.70;58.30;;;;;;6140449;23;20006;-72
2022/09/26 10:21:47;;;;;;;0.13;0.13;;;34.20;56.70;;;;;;6138268;23;20001;-72
2022/09/26 10:24:46;;;;;;;0.00;0.00;;;34.20;55.40;;;;;;6139882;23;20012;-72
2022/09/26 10:27:50;;;;;;;0.00;0.00;;;32.70;54.90;;;;;;6092174;23;20010;-72
2022/09/26 10:30:18;;;;;;;0.10;0.10;;;30.70;56.20;;;;;;6106445;23;20010;-71
2022/09/26 10:32:50;;;;;;;0.17;0.10;;;28.50;59.40;;;;;;6134328;23;20084;-71
2022/09/26 10:35:23;;;;;;;0.08;0.08;;;28.00;60.70;;;;;;6139661;23;20565;-72
2022/09/26 10:38:16;;;;;;;0.63;0.47;;;27.20;62.30;;;;;;6137830;23;20009;-69
2022/09/26 10:40:51;;;;;;;0.00;0.00;;;26.50;63.70;;;;;;6136897;23;20021;-68
2022/09/26 10:43:39;;;;;;;0.00;0.00;;;26.20;64.80;;;;;;6135984;23;20032;-68
2022/09/26 10:46:12;;;;;;;0.00;0.00;;;25.40;66.30;;;;;;6140313;23;20060;-68
2022/09/26 10:48:54;;;;;;;0.00;0.00;;;25.10;68.20;;;;;;6141827;23;20013;-68
2022/09/26 10:51:36;;;;;;;0.00;0.00;;;24.80;68.70;;;;;;6136082;23;20006;-68
2022/09/26 10:54:09;;;;;;;0.00;0.00;;;24.60;69.50;;;;;;6137536;23;20112;-68
2022/09/26 10:56:41;;;;;;;0.00;0.00;;;24.40;69.90;;;;;;6137438;23;20006;-69
2022/09/26 10:59:09;;;;;;;0.08;0.08;;;24.00;70.60;;;;;;6142606;23;20005;-71
2022/09/26 11:01:54;;;;;;;0.00;0.00;;;24.00;71.50;;;;;;6142285;23;20080;-71
2022/09/26 11:07:23;;;;;;;0.00;0.00;;;24.00;71.10;;;;;;6139024;23;20016;-72
2022/09/26 11:09:51;;;;;;;0.00;0.00;;;24.10;71.20;;;;;;6140965;23;20010;-71
2022/09/26 11:12:24;;;;;;;0.20;0.10;;;23.80;71.10;;;;;;6138245;23;20006;-71
2022/09/26 11:14:57;;;;;;;0.03;0.03;;;23.50;71.00;;;;;;6139171;23;20076;-71
2022/09/26 11:17:46;;;;;;;0.00;0.00;;;22.90;72.70;;;;;;6136919;23;20056;-71
2022/09/26 11:20:21;;;;;;;0.00;0.00;;;22.70;74.10;;;;;;6137190;23;20005;-71
2022/09/26 11:22:59;;;;;;;0.00;0.00;;;22.60;74.30;;;;;;6137544;23;20005;-71
2022/09/26 11:25:38;;;;;;;0.00;0.00;;;22.50;73.90;;;;;;6142406;23;20422;-71
2022/09/26 11:28:22;;;;;;;0.00;0.00;;;22.40;73.90;;;;;;6136551;23;20005;-71
2022/09/26 11:30:55;;;;;;;0.00;0.00;;;22.40;73.90;;;;;;6137553;23;20493;-72
2022/09/26 11:33:22;;;;;;;0.00;0.00;;;22.40;74.60;;;;;;6133188;23;20017;-72
2022/09/26 11:36:04;;;;;;;0.00;0.00;;;22.20;75.70;;;;;;6142387;23;20002;-72
2022/09/26 11:39:11;;;;;;;0.00;0.00;;;22.10;76.40;;;;;;6138687;23;20007;-71
2022/09/26 11:42:00;;;;;;;0.00;0.00;;;22.00;76.40;;;;;;6125635;23;20041;-72
2022/09/26 11:44:49;;;;;;;0.00;0.00;;;22.00;76.60;;;;;;6137805;23;20143;-71
2022/09/26 11:47:45;;;;;;;0.00;0.00;;;21.90;76.60;;;;;;6137793;23;20027;-71
2022/09/26 11:50:38;;;;;;;0.00;0.00;;;21.80;76.30;;;;;;6137773;23;20766;-71
2022/09/26 11:53:25;;;;;;;0.10;0.10;;;21.70;76.70;;;;;;6137280;23;20090;-71
2022/09/26 11:55:57;;;;;;;;;;;21.80;78.00;;;;;;6139300;23;20048;-71
2022/09/26 11:58:32;;;;;;;0.00;0.00;;;21.70;77.20;;;;;;6136047;23;19908;-72
2022/09/26 12:01:04;;;;;;;0.00;0.00;;;21.60;77.20;;;;;;6142471;23;20005;-71
2022/09/26 12:04:14;;;;;;;0.00;0.00;;;21.50;77.60;;;;;;6132190;23;20465;-71
2022/09/26 12:07:06;;;;;;;0.22;0.10;;;21.30;77.20;;;;;;6136499;23;20017;-71
2022/09/26 12:09:38;;;;;;;0.00;0.00;;;21.20;77.60;;;;;;6131859;23;20017;-71
2022/09/26 12:12:19;;;;;;;0.00;0.00;;;21.10;78.20;;;;;;6136539;23;19997;-71
2022/09/26 12:14:51;;;;;;;0.00;0.00;;;20.90;78.50;;;;;;6142194;23;20002;-68
2022/09/26 12:17:58;;;;;;;0.00;0.00;;;20.90;80.30;;;;;;6135983;23;20013;-68
2022/09/26 12:20:28;;;;;;;0.00;0.00;;;20.90;81.60;;;;;;6129386;23;20009;-68
2022/09/26 12:23:06;;;;;;;0.00;0.00;;;21.00;82.50;;;;;;6134892;23;20006;-68
2022/09/26 12:25:53;;;;;;;0.00;0.00;;;20.90;81.00;;;;;;6140749;23;20006;-68
2022/09/26 12:28:49;;;;;;;0.00;0.00;;;20.80;82.10;;;;;;6140285;23;20033;-68
2022/09/26 12:31:26;;;;;;;0.00;0.00;;;20.70;81.40;;;;;;6134800;23;20029;-68
2022/09/26 12:34:23;;;;;;;0.00;0.00;;;20.60;81.80;;;;;;6135485;23;20100;-68
2022/09/26 12:37:08;;;;;;;0.05;0.05;;;20.70;81.80;;;;;;6135427;23;20001;-68
2022/09/26 12:39:56;;;;;;;0.20;0.10;;;20.80;82.90;;;;;;6135647;23;20005;-68
2022/09/26 12:43:03;;;;;;;0.00;0.00;;;20.90;81.30;;;;;;6134124;23;20383;-69
2022/09/26 12:46:22;;;;;;;0.00;0.00;;;20.90;81.70;;;;;;6136114;23;20002;-68
2022/09/26 12:49:10;;;;;;;0.00;0.00;;;20.70;83.30;;;;;;6098849;23;20020;-68
2022/09/26 12:51:47;;;;;;;0.00;0.00;;;20.50;83.50;;;;;;6136242;23;20423;-68
2022/09/26 12:54:43;;;;;;;;;;;20.60;84.60;;;;;;6137242;23;20014;-68
2022/09/26 12:57:26;;;;;;;0.10;0.00;;;20.70;82.50;;;;;;6099898;23;19991;-68
2022/09/26 13:00:12;;;;;;;0.00;0.00;;;20.80;84.20;;;;;;6135417;23;20561;-68
2022/09/26 13:03:26;;;;;;;0.52;0.13;;;21.00;80.70;;;;;;6135819;23;20093;-68
2022/09/26 13:06:09;;;;;;;0.10;0.10;;;21.20;79.90;;;;;;6072851;23;20017;-68
2022/09/26 13:09:10;;;;;;;0.00;0.00;;;21.30;81.50;;;;;;6136970;23;20013;-68
2022/09/26 13:11:43;;;;;;;0.00;0.00;;;21.50;78.90;;;;;;6087014;23;20017;-68
2022/09/26 13:14:54;;;;;;;0.00;0.00;;;21.70;79.60;;;;;;6135990;23;20071;-68
2022/09/26 13:17:44;;;;;;;0.00;0.00;;;21.90;78.30;;;;;;6066299;23;20075;-68
2022/09/26 13:20:33;;;;;;;0.00;0.00;;;21.90;79.90;;;;;;6135562;23;20005;-68
2022/09/26 13:23:17;;;;;;;0.00;0.00;;;22.00;78.30;;;;;;6134606;23;20013;-68
2022/09/26 13:25:51;;;;;;;0.00;0.00;;;21.90;77.50;;;;;;6134702;23;20001;-68
2022/09/26 13:28:23;;;;;;;0.00;0.00;;;21.60;79.00;;;;;;6138469;23;20400;-68
2022/09/26 13:31:23;;;;;;;0.00;0.00;;;21.60;80.20;;;;;;6132711;23;20029;-68
2022/09/26 13:34:07;;;;;;;0.00;0.00;;;21.80;80.20;;;;;;6112314;23;20016;-68
2022/09/26 13:36:36;;;;;;;0.00;0.00;;;21.80;78.70;;;;;;6138711;23;20032;-68
2022/09/26 13:39:28;;;;;;;0.00;0.00;;;21.80;80.00;;;;;;6133204;23;20012;-68
2022/09/26 13:42:12;;;;;;;0.00;0.00;;;21.60;79.10;;;;;;6134014;23;20824;-68
2022/09/26 13:44:51;;;;;;;0.00;0.00;;;21.60;79.60;;;;;;6133616;23;20882;-69
2022/09/26 13:47:45;;;;;;;0.00;0.00;;;21.60;80.80;;;;;;6139053;23;20013;-69
2022/09/26 13:50:38;;;;;;;0.00;0.00;;;21.70;78.90;;;;;;6139124;23;20085;-68
2022/09/26 13:53:20;;;;;;;0.00;0.00;;;21.80;79.00;;;;;;6133397;23;20081;-68
2022/09/26 13:56:28;;;;;;;0.00;0.00;;;21.80;77.20;;;;;;6134637;23;20074;-68
2022/09/26 13:59:24;;;;;;;0.00;0.00;;;21.90;77.40;;;;;;6135174;23;20006;-68
2022/09/26 14:02:27;;;;;;;0.10;0.00;;;21.90;77.50;;;;;;6134352;23;20200;-68
2022/09/26 14:05:12;;;;;;;0.00;0.00;;;21.70;77.40;;;;;;6136435;23;20002;-68
2022/09/26 14:10:32;;;;;;;0.00;0.00;;;21.30;78.30;;;;;;6135495;23;20064;-68
2022/09/26 14:13:13;;;;;;;0.00;0.00;;;21.00;78.50;;;;;;6134106;23;20008;-68
2022/09/26 14:15:47;;;;;;;0.00;0.00;;;20.90;80.40;;;;;;6136335;23;20002;-68
2022/09/26 14:18:28;;;;;;;0.00;0.00;;;20.70;80.20;;;;;;6135324;23;20001;-68
2022/09/26 14:21:09;;;;;;;0.00;0.00;;;20.70;81.40;;;;;;6134735;23;20441;-70
2022/09/26 14:24:08;;;;;;;0.10;0.10;;;20.70;80.90;;;;;;6136697;23;20016;-70
2022/09/26 14:26:42;;;;;;;0.00;0.00;;;20.60;81.40;;;;;;6129799;23;20016;-70
2022/09/26 14:29:29;;;;;;;0.00;0.00;;;20.50;81.80;;;;;;6136556;23;20014;-71
2022/09/26 14:32:03;;;;;;;0.00;0.00;;;20.20;82.80;;;;;;6135066;23;19998;-70
2022/09/26 14:34:45;;;;;;;0.00;0.00;;;20.10;82.90;;;;;;6135821;23;20009;-70
2022/09/26 14:37:23;;;;;;;0.00;0.00;;;20.00;82.80;;;;;;6138031;23;20005;-71
2022/09/26 14:40:11;;;;;;;0.00;0.00;;;19.80;83.00;;;;;;6142649;23;20001;-71
2022/09/26 14:42:38;;;;;;;0.00;0.00;;;19.70;84.00;;;;;;6137572;23;20065;-70
2022/09/26 14:45:24;;;;;;;0.00;0.00;;;19.70;84.10;;;;;;6138111;23;20362;-70
2022/09/26 14:48:05;;;;;;;0.00;0.00;;;19.60;83.70;;;;;;6137805;23;20379;-70
2022/09/26 14:50:35;;;;;;;0.00;0.00;;;19.50;84.50;;;;;;6138462;23;20002;-70
2022/09/26 14:53:32;;;;;;;0.00;0.00;;;19.40;85.30;;;;;;6131250;23;20092;-71
2022/09/26 14:56:28;;;;;;;0.00;0.00;;;19.30;85.80;;;;;;6119086;23;20006;-70
2022/09/26 14:59:23;;;;;;;0.00;0.00;;;19.30;86.40;;;;;;6137761;23;21088;-71
2022/09/26 15:01:50;;;;;;;0.00;0.00;;;19.30;85.90;;;;;;6131559;23;20009;-70
2022/09/26 15:04:22;;;;;;;0.00;0.00;;;19.20;87.20;;;;;;6136409;23;20501;-70
2022/09/26 15:06:59;;;;;;;0.00;0.00;;;19.20;86.60;;;;;;6141148;23;20016;-70
2022/09/26 15:09:57;;;;;;;0.00;0.00;;;19.00;87.80;;;;;;6142405;23;20405;-70
2022/09/26 15:12:46;;;;;;;0.00;0.00;;;19.00;88.30;;;;;;6137588;23;20024;-70
2022/09/26 15:15:29;;;;;;;0.00;0.00;;;18.90;87.30;;;;;;6137333;23;20993;-70
2022/09/26 15:18:07;;;;;;;0.00;0.00;;;18.90;87.90;;;;;;6133927;23;20408;-70
2022/09/26 15:20:41;;;;;;;0.00;0.00;;;18.80;88.50;;;;;;6133168;23;20362;-70
2022/09/26 15:23:17;;;;;;;0.00;0.00;;;18.70;89.10;;;;;;6137120;23;20056;-70
2022/09/26 15:25:43;;;;;;;0.00;0.00;;;18.70;89.20;;;;;;6138765;23;20810;-70
2022/09/26 15:28:09;;;;;;;0.00;0.00;;;18.60;88.00;;;;;;6139830;23;20013;-70
2022/09/26 15:30:37;;;;;;;0.00;0.00;;;18.60;87.70;;;;;;6138678;23;20482;-70
2022/09/26 15:33:03;;;;;;;0.00;0.00;;;18.50;87.60;;;;;;6134942;23;20565;-71
2022/09/26 15:35:29;;;;;;;0.00;0.00;;;18.40;88.10;;;;;;6137534;23;20044;-71
2022/09/26 15:37:59;;;;;;;0.00;0.00;;;18.40;88.30;;;;;;6137259;23;20009;-70
2022/09/26 15:40:27;;;;;;;0.00;0.00;;;18.40;88.00;;;;;;6137352;23;20416;-71
2022/09/26 15:43:06;;;;;;;0.10;0.00;;;18.30;89.00;;;;;;6135308;23;20104;-71
2022/09/26 15:45:45;;;;;;;0.00;0.00;;;18.30;89.50;;;;;;6135425;23;20010;-71
2022/09/26 15:48:19;;;;;;;0.00;0.00;;;18.30;90.00;;;;;;6136810;23;20078;-70
2022/09/26 15:50:49;;;;;;;0.00;0.00;;;18.20;90.60;;;;;;6136738;23;20010;-70
2022/09/26 15:53:30;;;;;;;0.00;0.00;;;18.10;90.80;;;;;;6135841;23;20389;-70
2022/09/26 15:56:08;;;;;;;0.00;0.00;;;18.20;90.00;;;;;;6133087;23;20009;-71
2022/09/26 15:58:36;;;;;;;0.00;0.00;;;18.10;90.20;;;;;;6136397;23;20012;-70
2022/09/26 16:01:03;;;;;;;0.00;0.00;;;18.20;90.10;;;;;;6137417;23;20005;-71
2022/09/26 16:03:39;;;;;;;;;;;18.10;90.20;;;;;;6133190;23;20029;-71
2022/09/26 16:06:25;;;;;;;0.00;0.00;;;18.10;89.80;;;;;;6136333;23;19955;-70
2022/09/26 16:09:12;;;;;;;0.00;0.00;;;18.10;90.30;;;;;;6137122;23;20025;-70
2022/09/26 16:11:54;;;;;;;0.10;0.10;;;18.00;90.80;;;;;;6122888;23;20097;-71
2022/09/26 16:14:40;;;;;;;0.00;0.00;;;18.00;91.40;;;;;;6137153;23;20008;-71
2022/09/26 16:17:12;;;;;;;0.00;0.00;;;17.90;91.40;;;;;;6136902;23;19997;-71
2022/09/26 16:19:46;;;;;;;0.00;0.00;;;17.90;91.40;;;;;;6136857;23;20027;-71
2022/09/26 16:22:39;;;;;;;0.00;0.00;;;17.80;92.20;;;;;;6136822;23;19998;-71
2022/09/26 16:25:17;;;;;;;0.00;0.00;;;17.70;92.80;;;;;;6137344;23;20001;-70
2022/09/26 16:27:43;;;;;;;0.00;0.00;;;17.60;93.30;;;;;;6135836;23;20089;-71
2022/09/26 16:30:44;;;;;;;0.00;0.00;;;17.50;93.40;;;;;;6140232;23;20005;-70
2022/09/26 16:33:27;;;;;;;0.00;0.00;;;17.50;93.90;;;;;;6139087;23;20505;-71
2022/09/26 16:35:53;;;;;;;0.00;0.00;;;17.40;94.50;;;;;;6136763;23;20006;-71
2022/09/26 16:38:35;;;;;;;0.00;0.00;;;17.20;95.00;;;;;;6131658;23;20424;-71
2022/09/26 16:41:19;;;;;;;0.00;0.00;;;17.10;95.60;;;;;;6135676;23;20148;-70
2022/09/26 16:43:54;;;;;;;0.00;0.00;;;17.00;96.00;;;;;;6136756;23;20017;-71
2022/09/26 16:46:25;;;;;;;0.00;0.00;;;16.90;96.40;;;;;;6142233;23;20020;-70
2022/09/26 16:48:53;;;;;;;0.00;0.00;;;16.90;96.80;;;;;;6137949;23;20059;-70
2022/09/26 16:51:27;;;;;;;0.00;0.00;;;16.80;97.20;;;;;;6136992;23;20077;-71
2022/09/26 16:54:01;;;;;;;0.00;0.00;;;16.70;97.70;;;;;;6135941;23;20083;-65
2022/09/26 16:56:28;;;;;;;0.00;0.00;;;16.60;98.60;;;;;;6134750;23;20094;-63
2022/09/26 16:58:58;;;;;;;0.00;0.00;;;16.50;99.20;;;;;;6136051;23;20005;-63
2022/09/26 17:04:17;;;;;;;0.00;0.00;;;16.40;99.90;;;;;;6132617;23;20080;-63
2022/09/26 17:06:46;;;;;;;0.00;0.00;;;16.30;99.90;;;;;;6135714;23;20009;-63
2022/09/26 17:09:18;;;;;;;0.00;0.00;;;16.20;99.90;;;;;;6136701;23;20005;-62
2022/09/26 17:11:46;;;;;;;0.00;0.00;;;16.20;99.90;;;;;;6140335;23;20021;-63
2022/09/26 17:14:19;;;;;;;0.00;0.00;;;16.20;99.90;;;;;;6141075;23;20002;-62
2022/09/26 17:16:46;;;;;;;0.00;0.00;;;16.10;99.90;;;;;;6137611;23;20071;-62
2022/09/26 17:19:15;;;;;;;0.00;0.00;;;16.10;99.90;;;;;;6136830;23;20080;-70
2022/09/26 17:21:41;;;;;;;0.00;0.00;;;16.00;99.90;;;;;;6138109;23;20080;-70
2022/09/26 17:24:16;;;;;;;0.00;0.00;;;16.10;99.90;;;;;;6137122;23;20037;-70
2022/09/26 17:26:48;;;;;;;0.00;0.00;;;16.10;99.90;;;;;;6136789;23;20005;-70
2022/09/26 17:29:20;;;;;;;0.00;0.00;;;16.20;99.90;;;;;;6141194;23;20008;-70
2022/09/26 17:31:46;;;;;;;0.00;0.00;;;16.20;99.90;;;;;;6135101;23;20097;-70
2022/09/26 17:34:13;;;;;;;0.00;0.00;;;16.20;99.90;;;;;;6133452;23;20033;-70
2022/09/26 17:36:45;;;;;;;0.00;0.00;;;16.20;99.90;;;;;;6136857;23;20017;-69
2022/09/26 17:39:13;;;;;;;0.00;0.00;;;16.20;99.90;;;;;;6136788;23;20005;-70
2022/09/26 17:41:39;;;;;;;0.00;0.00;;;16.20;99.90;;;;;;6135449;23;20067;-70
2022/09/26 17:44:05;;;;;;;0.00;0.00;;;16.20;99.90;;;;;;6136774;23;20639;-70
2022/09/26 17:46:30;;;;;;;0.00;0.00;;;16.20;99.90;;;;;;6136682;23;20569;-70
2022/09/26 17:48:58;;;;;;;0.00;0.00;;;16.30;99.90;;;;;;6136434;23;20251;-70
2022/09/26 17:51:24;;;;;;;0.00;0.00;;;16.30;99.90;;;;;;6135070;23;20129;-70
2022/09/26 17:53:51;;;;;;;0.00;0.00;;;16.30;99.90;;;;;;6138271;23;20006;-70
2022/09/26 17:56:18;;;;;;;0.00;0.00;;;16.30;99.90;;;;;;6137376;23;20016;-70
2022/09/26 17:58:45;;;;;;;0.00;0.00;;;16.30;99.90;;;;;;6136882;23;20009;-70
2022/09/26 18:01:28;;;;;;;0.00;0.00;;;16.30;99.90;;;;;;6137643;23;20045;-70
2022/09/26 18:03:58;;;;;;;0.00;0.00;;;16.30;99.90;;;;;;6136679;23;20011;-70
2022/09/26 18:06:30;;;;;;;0.00;0.00;;;16.20;99.90;;;;;;6135818;23;20076;-70
2022/09/26 18:09:00;;;;;;;0.00;0.00;;;16.20;99.90;;;;;;6131576;23;20045;-70
2022/09/26 18:11:26;;;;;;;0.00;0.00;;;16.10;99.90;;;;;;6142015;23;20002;-70
2022/09/26 18:13:54;;;;;;;0.00;0.00;;;16.00;99.90;;;;;;6138734;23;20080;-70
2022/09/26 18:16:23;;;;;;;0.00;0.00;;;16.00;99.90;;;;;;6138325;23;20085;-70
2022/09/26 18:18:49;;;;;;;0.00;0.00;;;16.10;99.90;;;;;;6138801;23;20076;-70
2022/09/26 18:21:17;;;;;;;0.00;0.00;;;16.10;99.90;;;;;;6137906;23;20085;-70
2022/09/26 18:23:50;;;;;;;0.00;0.00;;;16.10;99.90;;;;;;6138357;23;20001;-70
2022/09/26 18:26:32;;;;;;;0.00;0.00;;;16.10;99.90;;;;;;6137834;23;20009;-70
2022/09/26 18:29:02;;;;;;;0.00;0.00;;;16.10;99.90;;;;;;6137954;23;20029;-70
2022/09/26 18:31:31;;;;;;;0.00;0.00;;;16.10;99.90;;;;;;6136853;23;20001;-70
2022/09/26 18:33:57;;;;;;;0.00;0.00;;;16.20;99.90;;;;;;6137790;23;20013;-70
2022/09/26 18:36:25;;;;;;;0.00;0.00;;;16.20;99.90;;;;;;6132414;23;20010;-70
2022/09/26 18:38:51;;;;;;;0.00;0.00;;;16.20;99.90;;;;;;6138897;23;20431;-71
2022/09/26 18:41:20;;;;;;;0.15;0.15;;;16.20;99.90;;;;;;6137846;23;20019;-71
2022/09/26 18:43:51;;;;;;;0.00;0.00;;;16.30;99.90;;;;;;6139808;23;20438;-72
2022/09/26 18:46:18;;;;;;;0.00;0.00;;;16.40;99.90;;;;;;6138328;23;20009;-71
2022/09/26 18:48:45;;;;;;;0.00;0.00;;;16.40;99.90;;;;;;6138966;23;20079;-71
2022/09/26 18:51:12;;;;;;;0.00;0.00;;;16.30;99.90;;;;;;6136287;23;20005;-71
2022/09/26 18:53:39;;;;;;;0.00;0.00;;;16.00;99.90;;;;;;6140098;23;20755;-71
2022/09/26 18:58:56;;;;;;;0.00;0.00;;;15.70;99.90;;;;;;6139267;23;20465;-71
2022/09/26 19:01:30;;;;;;;0.00;0.00;;;15.60;99.90;;;;;;6138688;23;20002;-71
2022/09/26 19:03:59;;;;;;;0.00;0.00;;;15.70;99.90;;;;;;6143824;23;20005;-71
2022/09/26 19:06:33;;;;;;;0.00;0.00;;;15.60;99.90;;;;;;6136885;23;20015;-71
2022/09/26 19:09:04;;;;;;;0.00;0.00;;;15.50;99.90;;;;;;6137409;23;20466;-71
2022/09/26 19:11:33;;;;;;;0.00;0.00;;;15.60;99.90;;;;;;6135364;23;20375;-71
2022/09/26 19:14:10;;;;;;;0.00;0.00;;;15.60;99.90;;;;;;6133128;23;20077;-70
2022/09/26 19:16:35;;;;;;;0.00;0.00;;;15.60;99.90;;;;;;6138403;23;20080;-71
2022/09/26 19:19:02;;;;;;;0.00;0.00;;;15.60;99.90;;;;;;6138635;23;20041;-71
2022/09/26 19:21:40;;;;;;;0.00;0.00;;;15.70;99.90;;;;;;6142920;23;20037;-71
2022/09/26 19:24:20;;;;;;;0.00;0.00;;;15.70;99.90;;;;;;6138867;23;20074;-71
2022/09/26 19:26:50;;;;;;;0.00;0.00;;;15.80;99.90;;;;;;6142661;23;20006;-71
2022/09/26 19:29:26;;;;;;;0.00;0.00;;;15.80;99.90;;;;;;6136340;23;20045;-71
2022/09/26 19:31:51;;;;;;;0.00;0.00;;;15.90;99.90;;;;;;6129373;23;19997;-71
2022/09/26 19:34:18;;;;;;;0.15;0.10;;;15.90;99.90;;;;;;6138430;23;20029;-71
2022/09/26 19:36:43;;;;;;;;;;;15.80;99.90;;;;;;6135032;23;20005;-71
2022/09/26 19:39:12;;;;;;;0.25;0.25;;;15.70;99.90;;;;;;6128956;23;19900;-71
2022/09/26 19:41:37;;;;;;;0.00;0.00;;;15.50;99.90;;;;;;6132022;23;20017;-71
2022/09/26 19:44:04;;;;;;;0.00;0.00;;;15.30;99.90;;;;;;6134673;23;20152;-71
2022/09/26 19:46:30;;;;;;;0.00;0.00;;;15.20;99.90;;;;;;6130336;23;20009;-70
2022/09/26 19:48:57;;;;;;;0.00;0.00;;;15.00;99.90;;;;;;6135330;23;20003;-71
2022/09/26 19:51:23;;;;;;;0.28;0.28;;;14.90;99.90;;;;;;6133105;23;20009;-71
2022/09/26 19:53:49;;;;;;;0.00;0.00;;;14.80;99.90;;;;;;6137497;23;20420;-71
2022/09/26 19:56:15;;;;;;;0.00;0.00;;;14.80;99.90;;;;;;6138134;23;20005;-71
2022/09/26 19:58:41;;;;;;;0.05;0.05;;;14.90;99.90;;;;;;6135884;23;20005;-71
2022/09/26 20:01:21;;;;;;;0.00;0.00;;;14.90;99.90;;;;;;6129793;23;20466;-71
2022/09/26 20:03:47;;;;;;;0.00;0.00;;;15.00;99.90;;;;;;6141350;23;20410;-71
2022/09/26 20:06:20;;;;;;;0.00;0.00;;;15.00;99.90;;;;;;6131571;23;20213;-71
2022/09/26 20:08:48;;;;;;;0.00;0.00;;;15.00;99.90;;;;;;6137441;23;19998;-71
2022/09/26 20:11:16;;;;;;;0.00;0.00;;;14.90;99.90;;;;;;6137504;23;20029;-71
2022/09/26 20:16:33;;;;;;;0.00;0.00;;;14.90;99.90;;;;;;6133567;23;20203;-71
2022/09/26 20:19:02;;;;;;;0.00;0.00;;;14.70;99.90;;;;;;6137859;23;20446;-71
2022/09/26 20:21:29;;;;;;;0.00;0.00;;;14.60;99.90;;;;;;6137460;23;20052;-71
2022/09/26 20:23:57;;;;;;;0.00;0.00;;;14.50;99.90;;;;;;6137643;23;20458;-71
2022/09/26 20:26:24;;;;;;;0.00;0.00;;;14.60;99.90;;;;;;6137651;23;20029;-71
2022/09/26 20:28:49;;;;;;;0.00;0.00;;;14.60;99.90;;;;;;6134611;23;20017;-71
2022/09/26 20:31:24;;;;;;;0.00;0.00;;;14.60;99.90;;;;;;6135297;23;20001;-71
2022/09/26 20:33:52;;;;;;;0.00;0.00;;;14.40;99.90;;;;;;6143039;23;20077;-71
2022/09/26 20:36:31;;;;;;;0.00;0.00;;;14.40;99.90;;;;;;6134311;23;20012;-71
2022/09/26 20:39:01;;;;;;;0.00;0.00;;;14.30;99.90;;;;;;6132145;23;20056;-71
2022/09/26 20:41:40;;;;;;;0.00;0.00;;;14.30;99.90;;;;;;6134974;23;20108;-71
2022/09/26 20:44:17;;;;;;;0.00;0.00;;;14.30;99.90;;;;;;6138956;23;20720;-71
2022/09/26 20:46:49;;;;;;;0.45;0.15;;;14.30;99.90;;;;;;6139288;23;20060;-71
2022/09/26 20:49:21;;;;;;;0.00;0.00;;;14.40;99.90;;;;;;6133499;23;20320;-71
2022/09/26 20:51:48;;;;;;;0.00;0.00;;;14.40;99.90;;;;;;6140548;23;20013;-71
2022/09/26 20:54:32;;;;;;;0.00;0.00;;;14.40;99.90;;;;;;6137800;23;20052;-71
2022/09/26 20:57:00;;;;;;;0.00;0.00;;;14.40;99.90;;;;;;6142197;23;20069;-72
2022/09/26 20:59:27;;;;;;;0.00;0.00;;;14.50;99.90;;;;;;6137551;23;20009;-71
2022/09/26 21:01:53;;;;;;;0.00;0.00;;;14.40;99.90;;;;;;6135651;23;20025;-71
2022/09/26 21:04:24;;;;;;;0.00;0.00;;;14.30;99.90;;;;;;6135812;23;20734;-71
2022/09/26 21:06:50;;;;;;;0.00;0.00;;;14.30;99.90;;;;;;6129659;23;20097;-71
2022/09/26 21:09:17;;;;;;;0.00;0.00;;;14.10;99.90;;;;;;6136259;23;20084;-71
2022/09/26 21:11:44;;;;;;;0.00;0.00;;;14.10;99.90;;;;;;6129820;23;20008;-71
2022/09/26 21:14:10;;;;;;;0.00;0.00;;;14.10;99.90;;;;;;6136546;23;20006;-72
2022/09/26 21:16:47;;;;;;;0.00;0.00;;;14.00;99.90;;;;;;6136865;23;20076;-71
2022/09/26 21:19:21;;;;;;;0.00;0.00;;;13.90;99.90;;;;;;6136090;23;20520;-71
2022/09/26 21:21:49;;;;;;;0.00;0.00;;;13.80;99.90;;;;;;6132676;23;20048;-71
2022/09/26 21:24:23;;;;;;;0.00;0.00;;;13.80;99.90;;;;;;6138262;23;20003;-71
2022/09/26 21:26:48;;;;;;;0.05;0.05;;;13.80;99.90;;;;;;6138052;23;20072;-71
2022/09/26 21:29:15;;;;;;;0.00;0.00;;;13.70;99.90;;;;;;6131969;23;20037;-71
2022/09/26 21:31:47;;;;;;;0.00;0.00;;;13.70;99.90;;;;;;6136134;23;20005;-71
2022/09/26 21:34:21;;;;;;;0.55;0.17;;;13.80;99.90;;;;;;6132531;23;20001;-71
2022/09/26 21:36:49;;;;;;;0.00;0.00;;;13.70;99.90;;;;;;6136858;23;20048;-71